createdAt,value
2019-01-15T00:00:16.700Z,1016.50
2019-01-15T00:01:16.975Z,1016.46
2019-01-15T00:02:16.701Z,1016.50
2019-01-15T00:03:16.730Z,1016.49
2019-01-15T00:04:16.762Z,1016.46
2019-01-15T00:05:16.844Z,1016.53
2019-01-15T00:06:16.886Z,1016.53
2019-01-15T00:07:17.149Z,1016.49
2019-01-15T00:08:16.940Z,1016.56
2019-01-15T00:09:16.971Z,1016.54
2019-01-15T00:10:16.945Z,1016.53
2019-01-15T00:11:17.022Z,1016.52
2019-01-15T00:12:17.054Z,1016.52
2019-01-15T00:13:17.029Z,1016.52
2019-01-15T00:14:17.366Z,1016.50
2019-01-15T00:15:17.145Z,1016.55
2019-01-15T00:16:17.170Z,1016.54
2019-01-15T00:17:17.176Z,1016.50
2019-01-15T00:18:17.182Z,1016.55
2019-01-15T00:19:17.248Z,1016.53
2019-01-15T00:20:17.247Z,1016.50
2019-01-15T00:21:17.574Z,1016.52
2019-01-15T00:22:17.305Z,1016.50
2019-01-15T00:23:17.342Z,1016.51
2019-01-15T00:24:17.367Z,1016.50
2019-01-15T00:25:17.397Z,1016.49
2019-01-15T00:26:17.481Z,1016.47
2019-01-15T00:27:17.504Z,1016.48
2019-01-15T00:28:17.792Z,1016.48
2019-01-15T00:29:17.570Z,1016.49
2019-01-15T00:30:17.548Z,1016.55
2019-01-15T00:31:17.627Z,1016.50
2019-01-15T00:32:17.604Z,1016.48
2019-01-15T00:33:17.634Z,1016.49
2019-01-15T00:34:17.724Z,1016.45
2019-01-15T00:35:17.994Z,1016.46
2019-01-15T00:36:17.733Z,1016.47
2019-01-15T00:38:17.843Z,1016.51
2019-01-15T00:39:17.880Z,1016.51
2019-01-15T00:40:17.901Z,1016.49
2019-01-15T00:41:17.879Z,1016.55
2019-01-15T00:42:18.211Z,1016.56
2019-01-15T00:43:17.937Z,1016.56
2019-01-15T00:44:17.968Z,1016.58
2019-01-15T00:45:18.057Z,1016.60
2019-01-15T00:46:18.045Z,1016.60
2019-01-15T00:47:18.066Z,1016.59
2019-01-15T00:48:18.101Z,1016.61
2019-01-15T00:49:18.421Z,1016.61
2019-01-15T00:50:18.209Z,1016.67
2019-01-15T00:51:18.240Z,1016.65
2019-01-15T00:52:18.218Z,1016.71
2019-01-15T00:53:18.302Z,1016.71
2019-01-15T00:54:18.324Z,1016.74
2019-01-15T00:55:18.360Z,1016.72
2019-01-15T00:56:18.640Z,1016.71
2019-01-15T00:57:18.374Z,1016.69
2019-01-15T00:58:18.401Z,1016.69
2019-01-15T00:59:18.490Z,1016.62
2019-01-15T01:00:18.509Z,1016.63
2019-01-15T01:01:18.480Z,1016.58
2019-01-15T01:02:18.570Z,1016.59
2019-01-15T01:03:18.854Z,1016.54
2019-01-15T01:04:18.575Z,1016.52
2019-01-15T01:05:18.652Z,1016.50
2019-01-15T01:06:18.642Z,1016.53
2019-01-15T01:07:18.728Z,1016.59
2019-01-15T01:08:18.792Z,1016.59
2019-01-15T01:10:19.056Z,1016.64
2019-01-15T01:11:18.833Z,1016.61
2019-01-15T01:12:22.319Z,1016.58
2019-01-15T01:13:18.905Z,1016.59
2019-01-15T01:14:18.897Z,1016.57
2019-01-15T01:15:18.960Z,1016.56
2019-01-15T01:16:18.990Z,1016.60
2019-01-15T01:17:19.268Z,1016.61
2019-01-15T01:18:19.300Z,1016.65
2019-01-15T01:19:19.080Z,1016.63
2019-01-15T01:20:19.054Z,1016.60
2019-01-15T01:21:19.142Z,1016.66
2019-01-15T01:22:19.122Z,1016.67
2019-01-15T01:23:19.210Z,1016.67
2019-01-15T01:24:19.531Z,1016.64
2019-01-15T01:25:19.210Z,1016.67
2019-01-15T01:26:19.244Z,1016.65
2019-01-15T01:27:19.323Z,1016.64
2019-01-15T01:28:19.349Z,1016.66
2019-01-15T01:29:19.401Z,1016.69
2019-01-15T01:30:19.374Z,1016.66
2019-01-15T01:31:19.696Z,1016.75
2019-01-15T01:32:19.522Z,1016.73
2019-01-15T01:33:19.450Z,1016.79
2019-01-15T01:34:19.477Z,1016.82
2019-01-15T01:35:19.572Z,1016.80
2019-01-15T01:36:19.554Z,1016.84
2019-01-15T01:37:19.624Z,1016.82
2019-01-15T01:38:19.902Z,1016.79
2019-01-15T01:39:19.688Z,1016.78
2019-01-15T01:40:19.725Z,1016.79
2019-01-15T01:41:19.699Z,1016.77
2019-01-15T01:42:19.775Z,1016.70
2019-01-15T01:43:19.760Z,1016.65
2019-01-15T01:44:19.787Z,1016.67
2019-01-15T01:45:20.115Z,1016.63
2019-01-15T01:46:19.845Z,1016.63
2019-01-15T01:47:20.026Z,1016.70
2019-01-15T01:48:19.955Z,1016.68
2019-01-15T01:49:19.945Z,1016.71
2019-01-15T01:50:19.962Z,1016.66
2019-01-15T01:52:20.320Z,1016.71
2019-01-15T01:53:20.107Z,1016.73
2019-01-15T01:54:20.088Z,1016.73
2019-01-15T01:55:20.166Z,1016.75
2019-01-15T01:56:20.194Z,1016.73
2019-01-15T01:58:20.203Z,1016.78
2019-01-15T01:59:20.588Z,1016.80
2019-01-15T02:00:20.269Z,1016.80
2019-01-15T02:01:20.295Z,1016.84
2019-01-15T02:02:20.321Z,1016.84
2019-01-15T02:03:20.402Z,1016.87
2019-01-15T02:04:20.434Z,1016.91
2019-01-15T02:05:20.717Z,1016.89
2019-01-15T02:06:20.446Z,1016.83
2019-01-15T02:07:20.525Z,1016.82
2019-01-15T02:08:20.567Z,1016.82
2019-01-15T02:09:20.534Z,1016.81
2019-01-15T02:10:20.606Z,1016.80
2019-01-15T02:11:20.897Z,1016.80
2019-01-15T02:12:20.777Z,1016.78
2019-01-15T02:13:20.665Z,1016.80
2019-01-15T02:14:20.686Z,1016.80
2019-01-15T02:15:20.725Z,1016.82
2019-01-15T02:16:20.800Z,1016.82
2019-01-15T02:17:21.080Z,1016.83
2019-01-15T02:18:20.860Z,1016.84
2019-01-15T02:19:20.888Z,1016.81
2019-01-15T02:20:20.925Z,1016.85
2019-01-15T02:21:20.949Z,1016.84
2019-01-15T02:22:20.977Z,1016.85
2019-01-15T02:23:21.022Z,1016.81
2019-01-15T02:24:21.287Z,1016.80
2019-01-15T02:26:21.100Z,1016.83
2019-01-15T02:27:21.082Z,1016.79
2019-01-15T02:28:21.111Z,1016.85
2019-01-15T02:29:21.132Z,1016.80
2019-01-15T02:30:21.219Z,1016.88
2019-01-15T02:31:21.493Z,1016.86
2019-01-15T02:32:21.227Z,1016.94
2019-01-15T02:33:21.352Z,1016.89
2019-01-15T02:34:21.294Z,1016.88
2019-01-15T02:35:21.372Z,1016.91
2019-01-15T02:36:21.397Z,1016.88
2019-01-15T02:37:21.425Z,1016.86
2019-01-15T02:38:21.709Z,1016.87
2019-01-15T02:39:21.491Z,1016.89
2019-01-15T02:40:21.536Z,1016.87
2019-01-15T02:41:21.554Z,1016.82
2019-01-15T02:42:21.526Z,1016.84
2019-01-15T02:43:21.610Z,1016.83
2019-01-15T02:44:21.591Z,1016.83
2019-01-15T02:45:21.919Z,1016.87
2019-01-15T02:46:21.699Z,1016.85
2019-01-15T02:47:21.726Z,1016.82
2019-01-15T02:48:21.758Z,1016.84
2019-01-15T02:49:21.791Z,1016.78
2019-01-15T02:50:21.768Z,1016.76
2019-01-15T02:51:21.858Z,1016.76
2019-01-15T02:52:22.187Z,1016.85
2019-01-15T02:53:21.906Z,1016.82
2019-01-15T02:54:21.891Z,1016.84
2019-01-15T02:55:21.968Z,1016.73
2019-01-15T02:56:22.001Z,1016.74
2019-01-15T02:57:22.027Z,1016.71
2019-01-15T02:58:22.020Z,1016.74
2019-01-15T02:59:22.442Z,1016.75
2019-01-15T03:00:22.073Z,1016.69
2019-01-15T03:01:22.099Z,1016.73
2019-01-15T03:02:22.288Z,1016.69
2019-01-15T03:03:22.213Z,1016.67
2019-01-15T03:04:22.247Z,1016.70
2019-01-15T03:05:22.583Z,1016.70
2019-01-15T03:06:22.561Z,1016.73
2019-01-15T03:07:22.334Z,1016.72
2019-01-15T03:08:22.358Z,1016.73
2019-01-15T03:09:22.342Z,1016.70
2019-01-15T03:10:22.367Z,1016.67
2019-01-15T03:11:22.446Z,1016.62
2019-01-15T03:12:22.532Z,1016.59
2019-01-15T03:13:22.870Z,1016.56
2019-01-15T03:14:22.492Z,1016.54
2019-01-15T03:15:22.573Z,1016.50
2019-01-15T03:16:22.607Z,1016.44
2019-01-15T03:17:22.586Z,1016.38
2019-01-15T03:18:22.668Z,1016.38
2019-01-15T03:19:22.689Z,1016.35
2019-01-15T03:20:22.971Z,1016.37
2019-01-15T03:21:22.747Z,1016.41
2019-01-15T03:22:22.782Z,1016.40
2019-01-15T03:23:22.814Z,1016.45
2019-01-15T03:24:22.848Z,1016.48
2019-01-15T03:25:22.828Z,1016.48
2019-01-15T03:26:22.916Z,1016.49
2019-01-15T03:27:23.187Z,1016.46
2019-01-15T03:28:22.915Z,1016.42
2019-01-15T03:29:22.941Z,1016.37
2019-01-15T03:32:23.040Z,1016.31
2019-01-15T03:33:23.073Z,1016.31
2019-01-15T03:34:23.401Z,1016.31
2019-01-15T03:35:23.189Z,1016.34
2019-01-15T03:36:23.210Z,1016.25
2019-01-15T03:37:23.235Z,1016.23
2019-01-15T03:38:23.260Z,1016.20
2019-01-15T03:39:23.294Z,1016.20
2019-01-15T03:40:23.634Z,1016.22
2019-01-15T03:41:23.314Z,1016.24
2019-01-15T03:42:23.403Z,1016.24
2019-01-15T03:43:23.365Z,1016.26
2019-01-15T03:44:23.391Z,1016.27
2019-01-15T03:45:23.483Z,1016.34
2019-01-15T03:46:23.812Z,1016.33
2019-01-15T03:47:23.540Z,1016.38
2019-01-15T03:49:23.607Z,1016.34
2019-01-15T03:50:23.595Z,1016.29
2019-01-15T03:51:23.760Z,1016.29
2019-01-15T03:52:23.942Z,1016.25
2019-01-15T03:53:23.672Z,1016.28
2019-01-15T03:54:23.711Z,1016.31
2019-01-15T03:55:23.773Z,1016.29
2019-01-15T03:56:23.758Z,1016.32
2019-01-15T03:58:23.820Z,1016.30
2019-01-15T03:59:24.159Z,1016.32
2019-01-15T04:00:23.882Z,1016.34
2019-01-15T04:01:23.911Z,1016.31
2019-01-15T04:02:23.996Z,1016.31
2019-01-15T04:03:24.021Z,1016.27
2019-01-15T04:05:24.024Z,1016.28
2019-01-15T04:06:24.360Z,1016.25
2019-01-15T04:07:24.134Z,1016.26
2019-01-15T04:09:24.150Z,1016.22
2019-01-15T04:10:24.180Z,1016.18
2019-01-15T04:11:24.256Z,1016.15
2019-01-15T04:12:24.288Z,1016.15
2019-01-15T04:13:24.570Z,1016.10
2019-01-15T04:14:24.299Z,1016.11
2019-01-15T04:15:24.393Z,1016.08
2019-01-15T04:16:24.356Z,1016.08
2019-01-15T04:17:24.442Z,1016.10
2019-01-15T04:18:24.473Z,1016.10
2019-01-15T04:19:24.499Z,1016.02
2019-01-15T04:20:24.804Z,1016.04
2019-01-15T04:21:24.615Z,1015.97
2019-01-15T04:22:24.902Z,1016.00
2019-01-15T04:23:24.724Z,1015.95
2019-01-15T04:24:24.655Z,1015.98
2019-01-15T04:25:24.682Z,1015.98
2019-01-15T04:26:24.765Z,1016.01
2019-01-15T04:27:25.040Z,1016.01
2019-01-15T04:29:24.752Z,1016.05
2019-01-15T04:30:24.794Z,1016.04
2019-01-15T04:31:24.812Z,1016.03
2019-01-15T04:32:24.891Z,1016.00
2019-01-15T04:33:24.924Z,1015.94
2019-01-15T04:34:25.309Z,1016.01
2019-01-15T04:35:25.082Z,1015.97
2019-01-15T04:36:25.014Z,1016.03
2019-01-15T04:37:24.990Z,1016.04
2019-01-15T04:38:25.023Z,1016.05
2019-01-15T04:39:25.113Z,1016.04
2019-01-15T04:40:25.130Z,1016.02
2019-01-15T04:41:25.410Z,1016.01
2019-01-15T04:42:25.194Z,1015.99
2019-01-15T04:43:25.227Z,1016.02
2019-01-15T04:44:25.350Z,1015.96
2019-01-15T04:45:25.238Z,1015.95
2019-01-15T04:46:25.269Z,1015.99
2019-01-15T04:47:25.348Z,1015.95
2019-01-15T04:48:25.626Z,1016.01
2019-01-15T04:49:25.439Z,1015.95
2019-01-15T04:50:25.436Z,1015.98
2019-01-15T04:51:25.465Z,1015.90
2019-01-15T04:52:25.442Z,1015.93
2019-01-15T04:53:25.524Z,1015.90
2019-01-15T04:54:25.564Z,1015.87
2019-01-15T04:55:25.863Z,1015.80
2019-01-15T04:56:25.612Z,1015.81
2019-01-15T04:57:25.604Z,1015.71
2019-01-15T04:58:25.678Z,1015.76
2019-01-15T04:59:25.706Z,1015.80
2019-01-15T05:00:25.692Z,1015.78
2019-01-15T05:01:25.769Z,1015.74
2019-01-15T05:02:26.048Z,1015.71
2019-01-15T05:03:25.832Z,1015.76
2019-01-15T05:04:25.814Z,1015.68
2019-01-15T05:05:25.832Z,1015.66
2019-01-15T05:06:25.921Z,1015.69
2019-01-15T05:07:25.903Z,1015.72
2019-01-15T05:08:25.975Z,1015.68
2019-01-15T05:09:26.269Z,1015.62
2019-01-15T05:10:26.041Z,1015.68
2019-01-15T05:11:26.072Z,1015.66
2019-01-15T05:12:26.195Z,1015.65
2019-01-15T05:13:27.459Z,1015.64
2019-01-15T05:14:26.164Z,1015.62
2019-01-15T05:15:26.220Z,1015.59
2019-01-15T05:16:26.469Z,1015.56
2019-01-15T05:17:26.249Z,1015.57
2019-01-15T05:18:26.226Z,1015.57
2019-01-15T05:19:26.310Z,1015.49
2019-01-15T05:20:26.344Z,1015.51
2019-01-15T05:21:26.332Z,1015.49
2019-01-15T05:23:26.434Z,1015.53
2019-01-15T05:24:26.772Z,1015.55
2019-01-15T05:25:26.442Z,1015.53
2019-01-15T05:27:26.518Z,1015.54
2019-01-15T05:28:26.691Z,1015.51
2019-01-15T05:29:26.617Z,1015.50
2019-01-15T05:30:26.654Z,1015.49
2019-01-15T05:31:26.920Z,1015.43
2019-01-15T05:32:26.656Z,1015.44
2019-01-15T05:33:26.739Z,1015.44
2019-01-15T05:34:26.770Z,1015.44
2019-01-15T05:35:26.795Z,1015.44
2019-01-15T05:36:26.975Z,1015.48
2019-01-15T05:37:26.858Z,1015.43
2019-01-15T05:38:27.131Z,1015.43
2019-01-15T05:39:26.918Z,1015.45
2019-01-15T05:40:26.954Z,1015.42
2019-01-15T05:41:26.924Z,1015.43
2019-01-15T05:42:27.008Z,1015.42
2019-01-15T05:43:27.031Z,1015.45
2019-01-15T05:44:27.018Z,1015.44
2019-01-15T05:45:27.555Z,1015.45
2019-01-15T05:46:27.072Z,1015.42
2019-01-15T05:47:27.194Z,1015.43
2019-01-15T05:48:27.194Z,1015.46
2019-01-15T05:49:27.162Z,1015.44
2019-01-15T05:50:27.243Z,1015.43
2019-01-15T05:51:27.292Z,1015.44
2019-01-15T05:52:27.557Z,1015.41
2019-01-15T05:54:27.320Z,1015.35
2019-01-15T05:55:27.348Z,1015.38
2019-01-15T05:56:27.432Z,1015.35
2019-01-15T05:57:27.453Z,1015.39
2019-01-15T05:58:27.757Z,1015.36
2019-01-15T05:59:27.515Z,1015.40
2019-01-15T06:00:27.541Z,1015.36
2019-01-15T06:01:27.531Z,1015.38
2019-01-15T06:02:27.552Z,1015.42
2019-01-15T06:03:27.643Z,1015.41
2019-01-15T06:04:28.006Z,1015.38
2019-01-15T06:05:27.695Z,1015.35
2019-01-15T06:06:27.693Z,1015.32
2019-01-15T06:07:33.586Z,1015.35
2019-01-15T06:08:27.734Z,1015.33
2019-01-15T06:09:27.919Z,1015.35
2019-01-15T06:10:28.097Z,1015.30
2019-01-15T06:11:27.885Z,1015.32
2019-01-15T06:12:27.913Z,1015.35
2019-01-15T06:13:27.892Z,1015.38
2019-01-15T06:14:27.971Z,1015.36
2019-01-15T06:15:28.013Z,1015.32
2019-01-15T06:16:27.974Z,1015.32
2019-01-15T06:17:28.125Z,1015.25
2019-01-15T06:18:28.189Z,1015.22
2019-01-15T06:19:28.115Z,1015.27
2019-01-15T06:20:28.154Z,1015.23
2019-01-15T06:21:28.128Z,1015.26
2019-01-15T06:22:28.211Z,1015.28
2019-01-15T06:23:28.492Z,1015.27
2019-01-15T06:24:28.225Z,1015.28
2019-01-15T06:25:28.303Z,1015.26
2019-01-15T06:27:28.358Z,1015.23
2019-01-15T06:28:28.393Z,1015.19
2019-01-15T06:29:28.374Z,1015.22
2019-01-15T06:30:28.703Z,1015.20
2019-01-15T06:31:28.479Z,1015.22
2019-01-15T06:32:28.476Z,1015.17
2019-01-15T06:33:28.542Z,1015.15
2019-01-15T06:34:28.520Z,1015.13
2019-01-15T06:35:28.604Z,1015.11
2019-01-15T06:36:28.631Z,1015.08
2019-01-15T06:37:28.911Z,1015.06
2019-01-15T06:38:28.641Z,1015.05
2019-01-15T06:39:28.730Z,1015.04
2019-01-15T06:40:28.697Z,1015.04
2019-01-15T06:41:28.786Z,1015.03
2019-01-15T06:42:28.810Z,1015.04
2019-01-15T06:43:28.818Z,1015.08
2019-01-15T06:44:29.244Z,1015.08
2019-01-15T06:45:28.909Z,1015.05
2019-01-15T06:46:28.934Z,1015.04
2019-01-15T06:48:28.943Z,1015.07
2019-01-15T06:51:29.091Z,1015.02
2019-01-15T06:52:29.121Z,1014.99
2019-01-15T06:54:29.125Z,1015.01
2019-01-15T06:55:29.225Z,1015.00
2019-01-15T06:56:29.238Z,1014.98
2019-01-15T06:57:29.222Z,1015.01
2019-01-15T06:58:29.553Z,1014.99
2019-01-15T06:59:29.276Z,1015.02
2019-01-15T07:00:29.324Z,1015.01
2019-01-15T07:01:29.385Z,1015.02
2019-01-15T07:02:29.369Z,1015.02
2019-01-15T07:03:29.446Z,1015.03
2019-01-15T07:04:29.477Z,1015.02
2019-01-15T07:05:29.771Z,1015.04
2019-01-15T07:06:29.491Z,1015.01
2019-01-15T07:07:29.568Z,1015.03
2019-01-15T07:09:29.628Z,1015.04
2019-01-15T07:10:29.607Z,1015.05
2019-01-15T07:11:29.715Z,1015.03
2019-01-15T07:12:29.722Z,1015.04
2019-01-15T07:13:29.702Z,1015.09
2019-01-15T07:14:29.783Z,1015.06
2019-01-15T07:15:29.821Z,1015.08
2019-01-15T07:16:29.793Z,1015.09
2019-01-15T07:17:29.868Z,1015.10
2019-01-15T07:18:30.152Z,1015.06
2019-01-15T07:19:29.931Z,1015.04
2019-01-15T07:20:29.964Z,1015.11
2019-01-15T07:22:30.044Z,1015.10
2019-01-15T07:24:30.029Z,1015.06
2019-01-15T07:25:30.363Z,1015.06
2019-01-15T07:26:30.095Z,1015.05
2019-01-15T07:27:30.208Z,1015.06
2019-01-15T07:28:30.215Z,1015.06
2019-01-15T07:30:30.269Z,1015.12
2019-01-15T07:31:30.541Z,1015.10
2019-01-15T07:32:30.483Z,1015.06
2019-01-15T07:33:30.310Z,1015.11
2019-01-15T07:34:30.336Z,1015.15
2019-01-15T07:35:30.417Z,1015.19
2019-01-15T07:36:30.397Z,1015.16
2019-01-15T07:37:30.781Z,1015.13
2019-01-15T07:38:30.455Z,1015.18
2019-01-15T07:39:30.534Z,1015.24
2019-01-15T07:40:30.509Z,1015.28
2019-01-15T07:41:30.545Z,1015.30
2019-01-15T07:42:30.644Z,1015.28
2019-01-15T07:43:30.658Z,1015.31
2019-01-15T07:44:30.634Z,1015.26
2019-01-15T07:45:30.660Z,1015.30
2019-01-15T07:46:30.688Z,1015.27
2019-01-15T07:47:30.776Z,1015.23
2019-01-15T07:48:30.802Z,1015.24
2019-01-15T07:49:30.782Z,1015.22
2019-01-15T07:50:31.118Z,1015.21
2019-01-15T07:51:30.892Z,1015.23
2019-01-15T07:52:30.929Z,1015.24
2019-01-15T07:53:30.957Z,1015.24
2019-01-15T07:54:30.940Z,1015.28
2019-01-15T07:55:31.013Z,1015.21
2019-01-15T07:56:31.122Z,1015.24
2019-01-15T07:57:31.373Z,1015.21
2019-01-15T07:58:31.113Z,1015.28
2019-01-15T07:59:31.135Z,1015.31
2019-01-15T08:00:31.180Z,1015.26
2019-01-15T08:01:31.199Z,1015.20
2019-01-15T08:03:31.261Z,1015.18
2019-01-15T08:04:31.543Z,1015.15
2019-01-15T08:05:31.322Z,1015.11
2019-01-15T08:06:31.294Z,1015.13
2019-01-15T08:07:31.554Z,1015.13
2019-01-15T08:08:31.415Z,1015.14
2019-01-15T08:09:31.419Z,1015.15
2019-01-15T08:10:31.487Z,1015.12
2019-01-15T08:11:31.749Z,1015.18
2019-01-15T08:12:31.554Z,1015.20
2019-01-15T08:13:31.514Z,1015.14
2019-01-15T08:14:31.554Z,1015.12
2019-01-15T08:15:31.573Z,1015.09
2019-01-15T08:16:31.651Z,1015.13
2019-01-15T08:17:31.634Z,1015.06
2019-01-15T08:18:31.684Z,1014.97
2019-01-15T08:19:31.742Z,1015.08
2019-01-15T08:20:31.781Z,1015.05
2019-01-15T08:21:31.800Z,1015.10
2019-01-15T08:22:31.787Z,1015.07
2019-01-15T08:23:31.860Z,1015.09
2019-01-15T08:24:32.441Z,1015.10
2019-01-15T08:25:31.876Z,1015.04
2019-01-15T08:26:31.952Z,1015.05
2019-01-15T08:27:31.978Z,1014.96
2019-01-15T08:28:31.958Z,1015.03
2019-01-15T08:29:31.992Z,1015.02
2019-01-15T08:30:32.316Z,1015.03
2019-01-15T08:31:32.106Z,1014.99
2019-01-15T08:32:32.076Z,1015.01
2019-01-15T08:33:32.111Z,1015.06
2019-01-15T08:34:32.136Z,1015.04
2019-01-15T08:35:32.223Z,1015.03
2019-01-15T08:36:32.501Z,1015.05
2019-01-15T08:37:32.243Z,1015.06
2019-01-15T08:38:32.264Z,1015.09
2019-01-15T08:39:32.286Z,1015.08
2019-01-15T08:41:32.352Z,1015.08
2019-01-15T08:42:32.432Z,1015.08
2019-01-15T08:44:32.441Z,1015.06
2019-01-15T08:45:32.520Z,1015.08
2019-01-15T08:46:32.550Z,1015.01
2019-01-15T08:47:32.584Z,1015.06
2019-01-15T08:48:32.561Z,1015.09
2019-01-15T08:49:32.593Z,1015.07
2019-01-15T08:50:32.621Z,1015.07
2019-01-15T08:51:32.709Z,1015.06
2019-01-15T08:53:32.759Z,1015.09
2019-01-15T08:54:33.045Z,1015.11
2019-01-15T08:55:32.831Z,1015.09
2019-01-15T08:56:32.902Z,1015.10
2019-01-15T08:58:32.915Z,1015.11
2019-01-15T09:00:32.986Z,1015.08
2019-01-15T09:01:33.306Z,1015.07
2019-01-15T09:02:32.983Z,1015.06
2019-01-15T09:03:33.066Z,1015.07
2019-01-15T09:04:33.100Z,1015.05
2019-01-15T09:05:33.077Z,1015.07
2019-01-15T09:06:33.107Z,1015.05
2019-01-15T09:07:33.436Z,1015.02
2019-01-15T09:08:33.266Z,1015.09
2019-01-15T09:09:33.203Z,1015.10
2019-01-15T09:10:33.229Z,1015.12
2019-01-15T09:11:33.312Z,1015.09
2019-01-15T09:12:33.340Z,1015.13
2019-01-15T09:13:33.662Z,1015.09
2019-01-15T09:14:33.353Z,1015.15
2019-01-15T09:15:33.431Z,1015.11
2019-01-15T09:16:33.417Z,1015.17
2019-01-15T09:17:33.482Z,1015.13
2019-01-15T09:18:33.524Z,1015.12
2019-01-15T09:19:33.804Z,1015.13
2019-01-15T09:21:33.558Z,1015.16
2019-01-15T09:22:33.594Z,1015.14
2019-01-15T09:23:33.770Z,1015.12
2019-01-15T09:24:33.694Z,1015.18
2019-01-15T09:25:33.776Z,1015.19
2019-01-15T09:26:34.011Z,1015.16
2019-01-15T09:28:33.817Z,1015.20
2019-01-15T09:29:33.801Z,1015.20
2019-01-15T09:30:33.830Z,1015.19
2019-01-15T09:31:33.912Z,1015.16
2019-01-15T09:32:33.885Z,1015.19
2019-01-15T09:33:34.342Z,1015.18
2019-01-15T09:34:34.003Z,1015.21
2019-01-15T09:35:34.030Z,1015.21
2019-01-15T09:37:34.045Z,1015.19
2019-01-15T09:38:34.148Z,1015.24
2019-01-15T09:39:34.149Z,1015.20
2019-01-15T09:40:34.233Z,1015.27
2019-01-15T09:41:34.212Z,1015.25
2019-01-15T09:42:34.238Z,1015.27
2019-01-15T09:43:34.271Z,1015.25
2019-01-15T09:44:34.450Z,1015.26
2019-01-15T09:45:34.340Z,1015.23
2019-01-15T09:46:34.608Z,1015.23
2019-01-15T09:47:34.494Z,1015.24
2019-01-15T09:48:34.453Z,1015.22
2019-01-15T09:49:34.408Z,1015.25
2019-01-15T09:50:34.484Z,1015.24
2019-01-15T09:51:34.528Z,1015.17
2019-01-15T09:52:34.492Z,1015.23
2019-01-15T09:53:34.534Z,1015.27
2019-01-15T09:54:34.552Z,1015.31
2019-01-15T09:55:35.483Z,1015.33
2019-01-15T09:56:34.662Z,1015.32
2019-01-15T09:57:34.644Z,1015.31
2019-01-15T09:58:34.685Z,1015.30
2019-01-15T09:59:34.760Z,1015.31
2019-01-15T10:00:34.737Z,1015.25
2019-01-15T10:01:34.821Z,1015.23
2019-01-15T10:02:34.857Z,1015.24
2019-01-15T10:03:34.885Z,1015.22
2019-01-15T10:04:34.854Z,1015.20
2019-01-15T10:05:34.939Z,1015.16
2019-01-15T10:06:34.970Z,1015.18
2019-01-15T10:07:35.014Z,1015.11
2019-01-15T10:08:35.026Z,1015.16
2019-01-15T10:09:35.011Z,1015.10
2019-01-15T10:10:35.052Z,1015.08
2019-01-15T10:11:35.127Z,1015.02
2019-01-15T10:12:35.155Z,1015.04
2019-01-15T10:13:35.199Z,1014.98
2019-01-15T10:14:41.208Z,1015.04
2019-01-15T10:15:35.194Z,1015.02
2019-01-15T10:16:35.275Z,1014.98
2019-01-15T10:17:35.257Z,1014.96
2019-01-15T10:19:35.314Z,1014.97
2019-01-15T10:20:35.401Z,1014.96
2019-01-15T10:21:35.374Z,1014.95
2019-01-15T10:22:35.407Z,1014.93
2019-01-15T10:23:35.885Z,1014.82
2019-01-15T10:24:35.525Z,1014.90
2019-01-15T10:25:35.513Z,1014.87
2019-01-15T10:26:35.528Z,1014.90
2019-01-15T10:27:35.609Z,1014.80
2019-01-15T10:28:35.641Z,1014.83
2019-01-15T10:29:35.663Z,1014.85
2019-01-15T10:30:35.965Z,1014.78
2019-01-15T10:31:35.683Z,1014.82
2019-01-15T10:32:35.763Z,1014.78
2019-01-15T10:33:35.793Z,1014.84
2019-01-15T10:34:35.779Z,1014.79
2019-01-15T10:35:35.851Z,1014.87
2019-01-15T10:36:35.834Z,1014.82
2019-01-15T10:37:36.171Z,1014.87
2019-01-15T10:38:35.991Z,1014.76
2019-01-15T10:39:35.973Z,1014.81
2019-01-15T10:40:36.003Z,1014.76
2019-01-15T10:41:35.983Z,1014.74
2019-01-15T10:42:36.070Z,1014.78
2019-01-15T10:43:36.102Z,1014.77
2019-01-15T10:44:36.375Z,1014.76
2019-01-15T10:45:36.106Z,1014.75
2019-01-15T10:46:36.187Z,1014.70
2019-01-15T10:47:36.170Z,1014.73
2019-01-15T10:48:36.211Z,1014.71
2019-01-15T10:49:36.283Z,1014.64
2019-01-15T10:50:36.311Z,1014.72
2019-01-15T10:51:36.599Z,1014.70
2019-01-15T10:52:36.325Z,1014.68
2019-01-15T10:53:36.352Z,1014.65
2019-01-15T10:55:36.459Z,1014.72
2019-01-15T10:56:36.494Z,1014.72
2019-01-15T10:57:36.479Z,1014.62
2019-01-15T10:58:36.805Z,1014.62
2019-01-15T10:59:36.579Z,1014.62
2019-01-15T11:01:36.648Z,1014.63
2019-01-15T11:02:36.672Z,1014.59
2019-01-15T11:03:36.744Z,1014.59
2019-01-15T11:04:36.684Z,1014.62
2019-01-15T11:05:36.785Z,1014.60
2019-01-15T11:06:36.808Z,1014.58
2019-01-15T11:07:36.841Z,1014.60
2019-01-15T11:08:36.816Z,1014.53
2019-01-15T11:09:36.836Z,1014.59
2019-01-15T11:10:36.872Z,1014.45
2019-01-15T11:11:37.199Z,1014.47
2019-01-15T11:13:36.967Z,1014.46
2019-01-15T11:14:37.003Z,1014.50
2019-01-15T11:15:43.153Z,1014.50
2019-01-15T11:16:37.107Z,1014.50
2019-01-15T11:17:37.443Z,1014.45
2019-01-15T11:18:37.178Z,1014.44
2019-01-15T11:19:37.146Z,1014.41
2019-01-15T11:21:37.203Z,1014.40
2019-01-15T11:22:37.235Z,1014.34
2019-01-15T11:24:37.651Z,1014.39
2019-01-15T11:25:37.331Z,1014.33
2019-01-15T11:26:37.416Z,1014.38
2019-01-15T11:27:37.445Z,1014.35
2019-01-15T11:28:37.420Z,1014.39
2019-01-15T11:29:37.504Z,1014.34
2019-01-15T11:30:37.489Z,1014.32
2019-01-15T11:31:37.562Z,1014.29
2019-01-15T11:33:37.623Z,1014.33
2019-01-15T11:34:37.615Z,1014.33
2019-01-15T11:35:37.690Z,1014.35
2019-01-15T11:36:37.672Z,1014.29
2019-01-15T11:37:37.698Z,1014.31
2019-01-15T11:39:37.756Z,1014.38
2019-01-15T11:40:37.855Z,1014.33
2019-01-15T11:41:37.823Z,1014.34
2019-01-15T11:43:39.031Z,1014.36
2019-01-15T11:44:37.964Z,1014.33
2019-01-15T11:45:37.943Z,1014.31
2019-01-15T11:46:37.975Z,1014.32
2019-01-15T11:47:38.006Z,1014.29
2019-01-15T11:48:38.329Z,1014.35
2019-01-15T11:49:38.121Z,1014.30
2019-01-15T11:50:38.093Z,1014.28
2019-01-15T11:51:38.174Z,1014.33
2019-01-15T11:52:38.208Z,1014.25
2019-01-15T11:53:38.190Z,1014.24
2019-01-15T11:54:38.351Z,1014.26
2019-01-15T11:55:38.309Z,1014.27
2019-01-15T11:56:38.301Z,1014.24
2019-01-15T11:57:38.312Z,1014.26
2019-01-15T11:58:38.336Z,1014.25
2019-01-15T11:59:38.425Z,1014.26
2019-01-15T12:00:38.714Z,1014.27
2019-01-15T12:01:38.429Z,1014.33
2019-01-15T12:02:38.476Z,1014.28
2019-01-15T12:03:38.499Z,1014.32
2019-01-15T12:04:38.583Z,1014.27
2019-01-15T12:05:38.611Z,1014.29
2019-01-15T12:06:38.889Z,1014.32
2019-01-15T12:07:38.667Z,1014.31
2019-01-15T12:08:38.645Z,1014.27
2019-01-15T12:09:38.676Z,1014.28
2019-01-15T12:10:38.758Z,1014.28
2019-01-15T12:11:38.795Z,1014.26
2019-01-15T12:12:38.770Z,1014.24
2019-01-15T12:13:39.121Z,1014.32
2019-01-15T12:14:38.832Z,1014.31
2019-01-15T12:15:38.921Z,1014.32
2019-01-15T12:16:38.945Z,1014.32
2019-01-15T12:17:38.948Z,1014.32
2019-01-15T12:18:39.024Z,1014.34
2019-01-15T12:19:39.049Z,1014.31
2019-01-15T12:20:39.319Z,1014.32
2019-01-15T12:22:39.141Z,1014.25
2019-01-15T12:23:39.158Z,1014.22
2019-01-15T12:24:39.143Z,1014.17
2019-01-15T12:25:39.166Z,1014.24
2019-01-15T12:26:39.201Z,1014.23
2019-01-15T12:27:39.283Z,1014.26
2019-01-15T12:28:39.316Z,1014.17
2019-01-15T12:29:39.291Z,1014.18
2019-01-15T12:30:39.378Z,1014.18
2019-01-15T12:31:39.407Z,1014.19
2019-01-15T12:32:39.389Z,1014.14
2019-01-15T12:33:39.414Z,1014.06
2019-01-15T12:34:39.452Z,1014.08
2019-01-15T12:35:39.526Z,1014.02
2019-01-15T12:37:39.582Z,1014.12
2019-01-15T12:38:39.574Z,1014.05
2019-01-15T12:39:39.596Z,1014.03
2019-01-15T12:40:39.687Z,1014.13
2019-01-15T12:41:39.709Z,1013.99
2019-01-15T12:42:39.689Z,1014.00
2019-01-15T12:43:39.774Z,1014.00
2019-01-15T12:44:39.786Z,1013.94
2019-01-15T12:45:40.093Z,1014.03
2019-01-15T12:46:39.863Z,1013.95
2019-01-15T12:47:39.894Z,1014.05
2019-01-15T12:49:39.909Z,1014.01
2019-01-15T12:50:39.940Z,1014.06